sensor_id;sensor_type;location;lat;lon;timestamp;pressure;altitude;pressure_sealevel;temperature;humidity
76378;BME280;65200;49.500;8.654;2023-05-21T00:02:00;100120.72;;;14.99;85.33
76378;BME280;65200;49.500;8.654;2023-05-21T00:04:28;100144.72;;;15.26;84.69
76378;BME280;65200;49.500;8.654;2023-05-21T00:06:55;100148.09;;;15.21;84.54
76378;BME280;65200;49.500;8.654;2023-05-21T00:09:22;100141.94;;;15.14;85.34
76378;BME280;65200;49.500;8.654;2023-05-21T00:11:49;100138.19;;;15.15;85.00
76378;BME280;65200;49.500;8.654;2023-05-21T00:14:17;100114.22;;;15.07;84.62
76378;BME280;65200;49.500;8.654;2023-05-21T00:16:43;100137.06;;;15.23;84.89
76378;BME280;65200;49.500;8.654;2023-05-21T00:19:11;100140.59;;;15.23;84.65
76378;BME280;65200;49.500;8.654;2023-05-21T00:21:37;100147.56;;;15.31;84.72
76378;BME280;65200;49.500;8.654;2023-05-21T00:24:05;100139.59;;;15.36;84.23
76378;BME280;65200;49.500;8.654;2023-05-21T00:26:34;100135.66;;;15.38;83.65
76378;BME280;65200;49.500;8.654;2023-05-21T00:29:01;100093.22;;;15.09;84.09
76378;BME280;65200;49.500;8.654;2023-05-21T00:31:29;100092.53;;;15.13;84.16
76378;BME280;65200;49.500;8.654;2023-05-21T00:33:56;100126.72;;;15.38;84.22
76378;BME280;65200;49.500;8.654;2023-05-21T00:36:23;100113.59;;;15.23;84.30
76378;BME280;65200;49.500;8.654;2023-05-21T00:38:50;100130.56;;;15.30;84.47
76378;BME280;65200;49.500;8.654;2023-05-21T00:41:16;100137.31;;;15.39;84.20
76378;BME280;65200;49.500;8.654;2023-05-21T00:43:43;100092.09;;;15.17;84.32
76378;BME280;65200;49.500;8.654;2023-05-21T00:46:13;100127.13;;;15.41;83.95
76378;BME280;65200;49.500;8.654;2023-05-21T00:48:42;100093.06;;;15.22;83.70
76378;BME280;65200;49.500;8.654;2023-05-21T00:51:10;100103.19;;;15.27;83.88
76378;BME280;65200;49.500;8.654;2023-05-21T00:53:36;100124.84;;;15.38;84.04
76378;BME280;65200;49.500;8.654;2023-05-21T00:56:03;100116.38;;;15.35;84.80
76378;BME280;65200;49.500;8.654;2023-05-21T00:58:31;100122.16;;;15.38;83.85
76378;BME280;65200;49.500;8.654;2023-05-21T01:00:58;100058.63;;;14.99;84.06
76378;BME280;65200;49.500;8.654;2023-05-21T01:03:28;100108.50;;;15.33;83.66
76378;BME280;65200;49.500;8.654;2023-05-21T01:05:56;100122.31;;;15.43;83.84
76378;BME280;65200;49.500;8.654;2023-05-21T01:08:24;100113.31;;;15.49;83.55
76378;BME280;65200;49.500;8.654;2023-05-21T01:10:52;100117.03;;;15.48;83.54
76378;BME280;65200;49.500;8.654;2023-05-21T01:13:20;100087.34;;;15.30;83.08
76378;BME280;65200;49.500;8.654;2023-05-21T01:15:48;100103.03;;;15.40;83.63
76378;BME280;65200;49.500;8.654;2023-05-21T01:18:16;100098.72;;;15.32;84.29
76378;BME280;65200;49.500;8.654;2023-05-21T01:20:44;100101.38;;;15.39;84.69
76378;BME280;65200;49.500;8.654;2023-05-21T01:23:15;100104.22;;;15.44;83.66
76378;BME280;65200;49.500;8.654;2023-05-21T01:25:42;100100.13;;;15.41;84.05
76378;BME280;65200;49.500;8.654;2023-05-21T01:28:08;100098.88;;;15.37;84.22
76378;BME280;65200;49.500;8.654;2023-05-21T01:30:35;100092.97;;;15.29;84.45
76378;BME280;65200;49.500;8.654;2023-05-21T01:33:04;100096.72;;;15.28;84.18
76378;BME280;65200;49.500;8.654;2023-05-21T01:35:34;100092.00;;;15.23;85.23
76378;BME280;65200;49.500;8.654;2023-05-21T01:38:08;100082.75;;;15.31;84.39
76378;BME280;65200;49.500;8.654;2023-05-21T01:40:40;100071.09;;;15.19;84.61
76378;BME280;65200;49.500;8.654;2023-05-21T01:43:11;100083.22;;;15.28;84.62
76378;BME280;65200;49.500;8.654;2023-05-21T01:45:41;100079.41;;;15.35;84.59
76378;BME280;65200;49.500;8.654;2023-05-21T01:48:09;100082.66;;;15.37;84.20
76378;BME280;65200;49.500;8.654;2023-05-21T01:50:38;100078.34;;;15.36;84.41
76378;BME280;65200;49.500;8.654;2023-05-21T01:53:05;100073.41;;;15.33;84.20
76378;BME280;65200;49.500;8.654;2023-05-21T01:55:32;100072.41;;;15.28;84.65
76378;BME280;65200;49.500;8.654;2023-05-21T01:58:01;100052.72;;;15.09;84.34
76378;BME280;65200;49.500;8.654;2023-05-21T02:00:27;100077.13;;;15.32;83.87
76378;BME280;65200;49.500;8.654;2023-05-21T02:02:55;100078.66;;;15.28;84.49
76378;BME280;65200;49.500;8.654;2023-05-21T02:05:22;100079.47;;;15.29;84.74
76378;BME280;65200;49.500;8.654;2023-05-21T02:07:49;100081.94;;;15.30;84.71
76378;BME280;65200;49.500;8.654;2023-05-21T02:10:16;100035.78;;;15.02;84.36
76378;BME280;65200;49.500;8.654;2023-05-21T02:12:43;100074.50;;;15.26;84.75
76378;BME280;65200;49.500;8.654;2023-05-21T02:15:11;100067.56;;;15.18;85.42
76378;BME280;65200;49.500;8.654;2023-05-21T02:17:38;100066.81;;;15.11;85.89
76378;BME280;65200;49.500;8.654;2023-05-21T02:20:07;100069.66;;;15.16;85.07
76378;BME280;65200;49.500;8.654;2023-05-21T02:22:36;100064.09;;;15.29;84.62
76378;BME280;65200;49.500;8.654;2023-05-21T02:25:03;100069.66;;;15.16;85.65
76378;BME280;65200;49.500;8.654;2023-05-21T02:27:29;100062.78;;;15.02;87.36
76378;BME280;65200;49.500;8.654;2023-05-21T02:29:56;100062.19;;;14.82;87.07
76378;BME280;65200;49.500;8.654;2023-05-21T02:32:24;100070.28;;;14.82;87.45
76378;BME280;65200;49.500;8.654;2023-05-21T02:34:50;100073.13;;;14.87;88.01
76378;BME280;65200;49.500;8.654;2023-05-21T02:37:18;100035.88;;;14.59;88.05
76378;BME280;65200;49.500;8.654;2023-05-21T02:39:44;100067.88;;;14.74;88.16
76378;BME280;65200;49.500;8.654;2023-05-21T02:42:11;100050.63;;;14.57;88.37
76378;BME280;65200;49.500;8.654;2023-05-21T02:44:37;100066.59;;;14.58;89.67
76378;BME280;65200;49.500;8.654;2023-05-21T02:47:04;100062.69;;;14.54;90.02
76378;BME280;65200;49.500;8.654;2023-05-21T02:49:35;100067.91;;;14.49;90.39
76378;BME280;65200;49.500;8.654;2023-05-21T02:52:02;100065.91;;;14.45;90.73
76378;BME280;65200;49.500;8.654;2023-05-21T02:54:28;100059.00;;;14.31;91.26
76378;BME280;65200;49.500;8.654;2023-05-21T02:56:55;100060.78;;;14.37;90.58
76378;BME280;65200;49.500;8.654;2023-05-21T02:59:21;100063.09;;;14.33;90.83
76378;BME280;65200;49.500;8.654;2023-05-21T03:01:48;100057.72;;;14.33;90.27
76378;BME280;65200;49.500;8.654;2023-05-21T03:04:15;100069.31;;;14.34;90.22
76378;BME280;65200;49.500;8.654;2023-05-21T03:06:43;100069.38;;;14.27;90.65
76378;BME280;65200;49.500;8.654;2023-05-21T03:09:10;100060.72;;;14.19;92.24
76378;BME280;65200;49.500;8.654;2023-05-21T03:11:37;100061.94;;;14.23;92.29
76378;BME280;65200;49.500;8.654;2023-05-21T03:14:03;100046.69;;;14.10;91.46
76378;BME280;65200;49.500;8.654;2023-05-21T03:16:30;100064.47;;;14.18;92.97
76378;BME280;65200;49.500;8.654;2023-05-21T03:18:58;100058.69;;;14.14;91.77
76378;BME280;65200;49.500;8.654;2023-05-21T03:21:25;100062.78;;;14.17;91.08
76378;BME280;65200;49.500;8.654;2023-05-21T03:23:55;100055.31;;;14.19;92.45
76378;BME280;65200;49.500;8.654;2023-05-21T03:26:23;100062.44;;;14.13;91.25
76378;BME280;65200;49.500;8.654;2023-05-21T03:28:51;100061.59;;;14.13;92.17
76378;BME280;65200;49.500;8.654;2023-05-21T03:31:18;100055.78;;;14.16;91.12
76378;BME280;65200;49.500;8.654;2023-05-21T03:33:45;100057.84;;;14.14;91.83
76378;BME280;65200;49.500;8.654;2023-05-21T03:36:11;100070.53;;;14.13;92.40
76378;BME280;65200;49.500;8.654;2023-05-21T03:38:38;100070.56;;;14.07;92.66
76378;BME280;65200;49.500;8.654;2023-05-21T03:41:07;100039.25;;;13.81;93.53
76378;BME280;65200;49.500;8.654;2023-05-21T03:43:33;100065.13;;;13.89;92.85
76378;BME280;65200;49.500;8.654;2023-05-21T03:46:00;100060.59;;;13.82;94.39
76378;BME280;65200;49.500;8.654;2023-05-21T03:48:26;100066.13;;;13.88;92.92
76378;BME280;65200;49.500;8.654;2023-05-21T03:50:53;100073.94;;;13.96;93.94
76378;BME280;65200;49.500;8.654;2023-05-21T03:53:19;100066.38;;;13.86;93.34
76378;BME280;65200;49.500;8.654;2023-05-21T03:55:46;100063.84;;;13.91;93.10
76378;BME280;65200;49.500;8.654;2023-05-21T03:58:20;100071.31;;;13.89;92.39
76378;BME280;65200;49.500;8.654;2023-05-21T04:00:47;100074.84;;;13.90;92.20
76378;BME280;65200;49.500;8.654;2023-05-21T04:03:13;100058.50;;;13.85;93.43
76378;BME280;65200;49.500;8.654;2023-05-21T04:05:40;100072.94;;;13.97;91.91
76378;BME280;65200;49.500;8.654;2023-05-21T04:08:07;100074.13;;;14.01;91.24
76378;BME280;65200;49.500;8.654;2023-05-21T04:10:33;100058.94;;;13.82;92.97
76378;BME280;65200;49.500;8.654;2023-05-21T04:13:00;100068.16;;;13.92;93.20
76378;BME280;65200;49.500;8.654;2023-05-21T04:15:28;100063.06;;;13.84;92.29
76378;BME280;65200;49.500;8.654;2023-05-21T04:17:54;100081.28;;;13.89;93.09
76378;BME280;65200;49.500;8.654;2023-05-21T04:20:21;100082.97;;;13.83;93.72
76378;BME280;65200;49.500;8.654;2023-05-21T04:22:47;100094.97;;;13.87;92.91
76378;BME280;65200;49.500;8.654;2023-05-21T04:25:14;100085.56;;;13.96;92.54
76378;BME280;65200;49.500;8.654;2023-05-21T04:27:40;100083.09;;;13.95;93.38
76378;BME280;65200;49.500;8.654;2023-05-21T04:30:11;100087.22;;;13.97;91.51
76378;BME280;65200;49.500;8.654;2023-05-21T04:32:39;100061.84;;;13.80;93.26
76378;BME280;65200;49.500;8.654;2023-05-21T04:35:07;100079.97;;;13.98;92.91
76378;BME280;65200;49.500;8.654;2023-05-21T04:37:34;100090.06;;;14.02;92.39
76378;BME280;65200;49.500;8.654;2023-05-21T04:40:00;100094.94;;;13.94;92.81
76378;BME280;65200;49.500;8.654;2023-05-21T04:42:27;100086.19;;;13.98;93.15
76378;BME280;65200;49.500;8.654;2023-05-21T04:44:54;100097.88;;;14.10;93.48
76378;BME280;65200;49.500;8.654;2023-05-21T04:47:23;100098.06;;;14.15;91.36
76378;BME280;65200;49.500;8.654;2023-05-21T04:49:51;100090.63;;;14.11;91.90
76378;BME280;65200;49.500;8.654;2023-05-21T04:52:18;100096.22;;;14.40;90.57
76378;BME280;65200;49.500;8.654;2023-05-21T04:54:44;100092.25;;;14.43;90.85
76378;BME280;65200;49.500;8.654;2023-05-21T04:57:12;100090.72;;;14.53;90.95
76378;BME280;65200;49.500;8.654;2023-05-21T04:59:38;100088.63;;;14.55;89.82
76378;BME280;65200;49.500;8.654;2023-05-21T05:02:05;100095.06;;;14.72;89.12
76378;BME280;65200;49.500;8.654;2023-05-21T05:04:32;100099.63;;;14.72;88.57
76378;BME280;65200;49.500;8.654;2023-05-21T05:07:00;100080.25;;;14.63;89.17
76378;BME280;65200;49.500;8.654;2023-05-21T05:09:26;100098.81;;;14.71;89.08
76378;BME280;65200;49.500;8.654;2023-05-21T05:11:54;100102.16;;;14.67;89.22
76378;BME280;65200;49.500;8.654;2023-05-21T05:14:21;100098.44;;;14.68;89.31
76378;BME280;65200;49.500;8.654;2023-05-21T05:16:47;100081.09;;;14.57;89.87
76378;BME280;65200;49.500;8.654;2023-05-21T05:19:13;100091.53;;;14.54;90.03
76378;BME280;65200;49.500;8.654;2023-05-21T05:21:40;100100.09;;;14.69;88.62
76378;BME280;65200;49.500;8.654;2023-05-21T05:24:08;100098.75;;;14.78;89.39
76378;BME280;65200;49.500;8.654;2023-05-21T05:26:34;100098.59;;;14.73;88.83
76378;BME280;65200;49.500;8.654;2023-05-21T05:29:01;100092.16;;;14.74;89.79
76378;BME280;65200;49.500;8.654;2023-05-21T05:31:27;100096.34;;;14.70;89.88
76378;BME280;65200;49.500;8.654;2023-05-21T05:33:54;100102.88;;;14.80;88.88
76378;BME280;65200;49.500;8.654;2023-05-21T05:36:20;100075.19;;;14.67;89.21
76378;BME280;65200;49.500;8.654;2023-05-21T05:38:47;100092.69;;;14.82;88.54
76378;BME280;65200;49.500;8.654;2023-05-21T05:41:15;100078.50;;;14.69;88.85
76378;BME280;65200;49.500;8.654;2023-05-21T05:43:41;100090.00;;;14.82;89.02
76378;BME280;65200;49.500;8.654;2023-05-21T05:46:08;100086.81;;;14.67;89.98
76378;BME280;65200;49.500;8.654;2023-05-21T05:48:34;100083.97;;;14.62;91.09
76378;BME280;65200;49.500;8.654;2023-05-21T05:51:01;100097.25;;;14.82;89.81
76378;BME280;65200;49.500;8.654;2023-05-21T05:53:27;100098.47;;;14.86;90.85
76378;BME280;65200;49.500;8.654;2023-05-21T05:55:54;100098.75;;;14.78;90.94
76378;BME280;65200;49.500;8.654;2023-05-21T05:58:22;100106.56;;;14.86;89.13
76378;BME280;65200;49.500;8.654;2023-05-21T06:00:48;100100.31;;;14.85;89.00
76378;BME280;65200;49.500;8.654;2023-05-21T06:03:15;100060.69;;;14.68;89.68
76378;BME280;65200;49.500;8.654;2023-05-21T06:05:42;100098.09;;;15.00;88.30
76378;BME280;65200;49.500;8.654;2023-05-21T06:08:08;100103.88;;;15.04;87.86
76378;BME280;65200;49.500;8.654;2023-05-21T06:10:35;100112.31;;;15.07;88.28
76378;BME280;65200;49.500;8.654;2023-05-21T06:13:01;100097.47;;;15.17;87.17
76378;BME280;65200;49.500;8.654;2023-05-21T06:15:30;100087.38;;;15.12;88.05
76378;BME280;65200;49.500;8.654;2023-05-21T06:17:56;100108.81;;;15.25;87.45
76378;BME280;65200;49.500;8.654;2023-05-21T06:20:23;100099.03;;;15.24;88.28
76378;BME280;65200;49.500;8.654;2023-05-21T06:22:49;100117.28;;;15.29;87.96
76378;BME280;65200;49.500;8.654;2023-05-21T06:25:16;100105.19;;;15.31;87.56
76378;BME280;65200;49.500;8.654;2023-05-21T06:27:42;100110.03;;;15.59;87.15
76378;BME280;65200;49.500;8.654;2023-05-21T06:30:09;100110.19;;;15.64;86.76
76378;BME280;65200;49.500;8.654;2023-05-21T06:32:37;100113.25;;;15.67;86.97
76378;BME280;65200;49.500;8.654;2023-05-21T06:35:04;100103.06;;;15.69;86.93
76378;BME280;65200;49.500;8.654;2023-05-21T06:37:31;100111.41;;;15.79;86.96
76378;BME280;65200;49.500;8.654;2023-05-21T06:39:57;100108.38;;;15.87;87.17
76378;BME280;65200;49.500;8.654;2023-05-21T06:42:24;100111.72;;;16.01;87.60
76378;BME280;65200;49.500;8.654;2023-05-21T06:44:50;100104.00;;;16.16;86.29
76378;BME280;65200;49.500;8.654;2023-05-21T06:47:17;100110.84;;;16.30;84.85
76378;BME280;65200;49.500;8.654;2023-05-21T06:49:45;100108.31;;;16.47;85.41
76378;BME280;65200;49.500;8.654;2023-05-21T06:52:12;100114.97;;;16.44;84.85
76378;BME280;65200;49.500;8.654;2023-05-21T06:54:38;100105.97;;;16.62;84.92
76378;BME280;65200;49.500;8.654;2023-05-21T06:57:05;100113.97;;;16.80;83.84
76378;BME280;65200;49.500;8.654;2023-05-21T06:59:31;100111.94;;;16.87;83.84
76378;BME280;65200;49.500;8.654;2023-05-21T07:01:58;100112.38;;;17.07;84.25
76378;BME280;65200;49.500;8.654;2023-05-21T07:04:25;100112.47;;;17.23;84.12
76378;BME280;65200;49.500;8.654;2023-05-21T07:06:53;100116.75;;;17.59;80.12
76378;BME280;65200;49.500;8.654;2023-05-21T07:09:19;100109.16;;;17.89;79.68
76378;BME280;65200;49.500;8.654;2023-05-21T07:11:46;100086.84;;;18.32;75.23
76378;BME280;65200;49.500;8.654;2023-05-21T07:14:12;100130.50;;;18.96;74.49
76378;BME280;65200;49.500;8.654;2023-05-21T07:16:39;100119.41;;;19.20;74.97
76378;BME280;65200;49.500;8.654;2023-05-21T07:19:05;100126.53;;;19.04;73.32
76378;BME280;65200;49.500;8.654;2023-05-21T07:21:32;100122.69;;;19.22;72.13
76378;BME280;65200;49.500;8.654;2023-05-21T07:24:00;100124.91;;;19.25;72.31
76378;BME280;65200;49.500;8.654;2023-05-21T07:26:26;100084.78;;;19.10;73.46
76378;BME280;65200;49.500;8.654;2023-05-21T07:28:53;100122.59;;;19.55;73.29
76378;BME280;65200;49.500;8.654;2023-05-21T07:31:19;100077.19;;;19.55;70.53
76378;BME280;65200;49.500;8.654;2023-05-21T07:33:46;100117.91;;;19.98;73.74
76378;BME280;65200;49.500;8.654;2023-05-21T07:36:12;100117.31;;;20.18;72.36
76378;BME280;65200;49.500;8.654;2023-05-21T07:38:39;100100.59;;;20.09;70.40
76378;BME280;65200;49.500;8.654;2023-05-21T07:41:07;100115.84;;;20.10;70.98
76378;BME280;65200;49.500;8.654;2023-05-21T07:43:34;100110.53;;;20.20;71.04
76378;BME280;65200;49.500;8.654;2023-05-21T07:46:01;100098.81;;;19.93;72.01
76378;BME280;65200;49.500;8.654;2023-05-21T07:48:27;100109.97;;;19.92;72.73
76378;BME280;65200;49.500;8.654;2023-05-21T07:50:54;100106.97;;;19.93;73.93
76378;BME280;65200;49.500;8.654;2023-05-21T07:53:20;100079.94;;;19.82;72.05
76378;BME280;65200;49.500;8.654;2023-05-21T07:55:47;100087.41;;;19.96;71.11
76378;BME280;65200;49.500;8.654;2023-05-21T07:58:16;100107.69;;;19.84;70.52
76378;BME280;65200;49.500;8.654;2023-05-21T08:00:43;100102.66;;;19.97;73.37
76378;BME280;65200;49.500;8.654;2023-05-21T08:03:13;100107.34;;;20.07;70.45
76378;BME280;65200;49.500;8.654;2023-05-21T08:05:40;100109.53;;;20.31;71.23
76378;BME280;65200;49.500;8.654;2023-05-21T08:08:07;100100.06;;;20.39;70.37
76378;BME280;65200;49.500;8.654;2023-05-21T08:10:33;100095.94;;;20.36;71.80
76378;BME280;65200;49.500;8.654;2023-05-21T08:13:01;100083.84;;;20.17;69.48
76378;BME280;65200;49.500;8.654;2023-05-21T08:15:29;100074.13;;;20.00;70.33
76378;BME280;65200;49.500;8.654;2023-05-21T08:17:56;100077.38;;;19.97;71.25
76378;BME280;65200;49.500;8.654;2023-05-21T08:20:22;100102.19;;;20.32;71.12
76378;BME280;65200;49.500;8.654;2023-05-21T08:22:48;100094.38;;;20.40;70.10
76378;BME280;65200;49.500;8.654;2023-05-21T08:25:15;100069.03;;;20.40;68.06
76378;BME280;65200;49.500;8.654;2023-05-21T08:27:42;100092.63;;;20.66;69.78
76378;BME280;65200;49.500;8.654;2023-05-21T08:30:08;100060.03;;;20.76;68.93
76378;BME280;65200;49.500;8.654;2023-05-21T08:32:37;100098.44;;;21.21;67.83
76378;BME280;65200;49.500;8.654;2023-05-21T08:35:05;100092.00;;;21.52;66.29
76378;BME280;65200;49.500;8.654;2023-05-21T08:37:32;100091.47;;;21.55;65.40
76378;BME280;65200;49.500;8.654;2023-05-21T08:39:59;100085.59;;;21.94;66.08
76378;BME280;65200;49.500;8.654;2023-05-21T08:42:33;100093.19;;;21.82;67.11
76378;BME280;65200;49.500;8.654;2023-05-21T08:45:04;100093.50;;;21.90;65.75
76378;BME280;65200;49.500;8.654;2023-05-21T08:47:34;100096.41;;;21.63;67.62
76378;BME280;65200;49.500;8.654;2023-05-21T08:50:04;100098.88;;;21.70;67.62
76378;BME280;65200;49.500;8.654;2023-05-21T08:52:33;100056.78;;;21.41;67.25
76378;BME280;65200;49.500;8.654;2023-05-21T08:55:01;100051.88;;;21.38;67.07
76378;BME280;65200;49.500;8.654;2023-05-21T08:57:29;100076.78;;;21.71;67.05
76378;BME280;65200;49.500;8.654;2023-05-21T08:59:56;100083.41;;;22.01;65.54
76378;BME280;65200;49.500;8.654;2023-05-21T09:02:23;100091.88;;;21.99;66.94
76378;BME280;65200;49.500;8.654;2023-05-21T09:04:50;100094.03;;;22.02;64.94
76378;BME280;65200;49.500;8.654;2023-05-21T09:07:23;100083.69;;;22.19;65.09
76378;BME280;65200;49.500;8.654;2023-05-21T09:09:54;100097.63;;;22.28;64.54
76378;BME280;65200;49.500;8.654;2023-05-21T09:12:22;100083.13;;;22.12;66.85
76378;BME280;65200;49.500;8.654;2023-05-21T09:14:48;100097.63;;;22.33;62.56
76378;BME280;65200;49.500;8.654;2023-05-21T09:17:15;100095.97;;;22.72;64.84
76378;BME280;65200;49.500;8.654;2023-05-21T09:20:09;100091.84;;;22.99;65.14
76378;BME280;65200;49.500;8.654;2023-05-21T09:22:42;100076.16;;;23.20;59.78
76378;BME280;65200;49.500;8.654;2023-05-21T09:25:11;100087.44;;;23.03;63.04
76378;BME280;65200;49.500;8.654;2023-05-21T09:27:38;100088.25;;;23.09;62.61
76378;BME280;65200;49.500;8.654;2023-05-21T09:30:09;100094.78;;;23.08;63.07
76378;BME280;65200;49.500;8.654;2023-05-21T09:32:42;100056.31;;;22.89;61.20
76378;BME280;65200;49.500;8.654;2023-05-21T09:35:11;100090.16;;;23.03;64.43
76378;BME280;65200;49.500;8.654;2023-05-21T09:37:38;100088.75;;;23.16;62.11
76378;BME280;65200;49.500;8.654;2023-05-21T09:40:16;100076.13;;;23.40;60.54
76378;BME280;65200;49.500;8.654;2023-05-21T09:42:45;100048.25;;;23.33;60.39
76378;BME280;65200;49.500;8.654;2023-05-21T09:45:16;100079.69;;;23.36;62.29
76378;BME280;65200;49.500;8.654;2023-05-21T09:47:44;100049.19;;;22.98;62.07
76378;BME280;65200;49.500;8.654;2023-05-21T09:50:11;100064.69;;;23.28;59.65
76378;BME280;65200;49.500;8.654;2023-05-21T09:52:38;100071.47;;;23.36;60.21
76378;BME280;65200;49.500;8.654;2023-05-21T09:55:05;100041.19;;;23.17;60.26
76378;BME280;65200;49.500;8.654;2023-05-21T09:57:38;100070.13;;;23.23;59.56
76378;BME280;65200;49.500;8.654;2023-05-21T10:00:07;100067.41;;;23.28;59.38
76378;BME280;65200;49.500;8.654;2023-05-21T10:02:36;100070.97;;;23.34;60.04
76378;BME280;65200;49.500;8.654;2023-05-21T10:05:07;100065.91;;;23.56;59.75
76378;BME280;65200;49.500;8.654;2023-05-21T10:07:36;100065.22;;;23.35;61.28
76378;BME280;65200;49.500;8.654;2023-05-21T10:10:05;100079.31;;;23.52;59.14
76378;BME280;65200;49.500;8.654;2023-05-21T10:12:34;100067.41;;;23.28;60.95
76378;BME280;65200;49.500;8.654;2023-05-21T10:15:02;100064.91;;;23.42;62.33
76378;BME280;65200;49.500;8.654;2023-05-21T10:17:29;100019.97;;;22.94;62.41
76378;BME280;65200;49.500;8.654;2023-05-21T10:19:59;100068.16;;;23.44;59.81
76378;BME280;65200;49.500;8.654;2023-05-21T10:22:26;100064.88;;;23.47;57.84
76378;BME280;65200;49.500;8.654;2023-05-21T10:24:53;100050.41;;;23.41;60.37
76378;BME280;65200;49.500;8.654;2023-05-21T10:27:21;100060.72;;;23.54;61.21
76378;BME280;65200;49.500;8.654;2023-05-21T10:29:49;100039.25;;;23.71;58.68
76378;BME280;65200;49.500;8.654;2023-05-21T10:32:20;100059.56;;;24.09;58.46
76378;BME280;65200;49.500;8.654;2023-05-21T10:34:48;100057.28;;;24.21;54.82
76378;BME280;65200;49.500;8.654;2023-05-21T10:37:19;100010.19;;;24.19;55.76
76378;BME280;65200;49.500;8.654;2023-05-21T10:39:48;100035.06;;;24.22;58.67
76378;BME280;65200;49.500;8.654;2023-05-21T10:42:20;100054.75;;;24.29;59.13
76378;BME280;65200;49.500;8.654;2023-05-21T10:45:07;100044.69;;;24.49;58.43
76378;BME280;65200;49.500;8.654;2023-05-21T10:47:53;100034.06;;;24.71;56.80
76378;BME280;65200;49.500;8.654;2023-05-21T10:50:41;100031.34;;;24.94;57.50
76378;BME280;65200;49.500;8.654;2023-05-21T10:53:15;100043.09;;;24.95;55.20
76378;BME280;65200;49.500;8.654;2023-05-21T10:55:55;100029.75;;;25.12;55.04
76378;BME280;65200;49.500;8.654;2023-05-21T10:58:42;100022.47;;;25.02;55.11
76378;BME280;65200;49.500;8.654;2023-05-21T11:01:16;100032.09;;;25.00;52.94
76378;BME280;65200;49.500;8.654;2023-05-21T11:03:48;100012.75;;;25.10;55.35
76378;BME280;65200;49.500;8.654;2023-05-21T11:06:22;100029.22;;;25.10;54.16
76378;BME280;65200;49.500;8.654;2023-05-21T11:08:50;100016.19;;;25.44;54.16
76378;BME280;65200;49.500;8.654;2023-05-21T11:11:38;100025.31;;;25.58;53.47
76378;BME280;65200;49.500;8.654;2023-05-21T11:14:27;100026.50;;;25.52;53.65
76378;BME280;65200;49.500;8.654;2023-05-21T11:16:57;100019.31;;;25.56;54.79
76378;BME280;65200;49.500;8.654;2023-05-21T11:19:32;100011.59;;;25.58;55.60
76378;BME280;65200;49.500;8.654;2023-05-21T11:21:59;100024.69;;;25.98;54.69
76378;BME280;65200;49.500;8.654;2023-05-21T11:24:26;100012.53;;;26.04;52.83
76378;BME280;65200;49.500;8.654;2023-05-21T11:27:00;100016.56;;;26.25;51.74
76378;BME280;65200;49.500;8.654;2023-05-21T11:29:41;100009.81;;;25.86;53.85
76378;BME280;65200;49.500;8.654;2023-05-21T11:32:11;100004.84;;;25.69;56.86
76378;BME280;65200;49.500;8.654;2023-05-21T11:34:40;100011.06;;;26.12;56.42
76378;BME280;65200;49.500;8.654;2023-05-21T11:37:27;100011.16;;;25.51;53.67
76378;BME280;65200;49.500;8.654;2023-05-21T11:39:55;99996.00;;;24.93;53.86
76378;BME280;65200;49.500;8.654;2023-05-21T11:42:29;99989.06;;;24.48;55.79
76378;BME280;65200;49.500;8.654;2023-05-21T11:44:57;99997.91;;;25.16;50.77
76378;BME280;65200;49.500;8.654;2023-05-21T11:47:25;100006.09;;;26.27;51.37
76378;BME280;65200;49.500;8.654;2023-05-21T11:49:52;100005.13;;;26.64;51.72
76378;BME280;65200;49.500;8.654;2023-05-21T11:52:19;99982.13;;;27.28;47.99
76378;BME280;65200;49.500;8.654;2023-05-21T11:54:46;100015.56;;;27.35;48.23
76378;BME280;65200;49.500;8.654;2023-05-21T11:57:15;100000.94;;;27.48;45.34
76378;BME280;65200;49.500;8.654;2023-05-21T11:59:43;99993.56;;;27.92;38.45
76378;BME280;65200;49.500;8.654;2023-05-21T12:02:13;100006.38;;;28.41;35.92
76378;BME280;65200;49.500;8.654;2023-05-21T12:04:41;100005.56;;;28.71;42.20
76378;BME280;65200;49.500;8.654;2023-05-21T12:07:09;100001.91;;;28.23;40.87
76378;BME280;65200;49.500;8.654;2023-05-21T12:09:38;100002.25;;;28.91;37.85
76378;BME280;65200;49.500;8.654;2023-05-21T12:12:06;99998.28;;;29.14;34.03
76378;BME280;65200;49.500;8.654;2023-05-21T12:14:35;100007.41;;;29.23;36.32
76378;BME280;65200;49.500;8.654;2023-05-21T12:17:02;99998.66;;;28.91;34.76
76378;BME280;65200;49.500;8.654;2023-05-21T12:19:31;99996.09;;;28.94;34.84
76378;BME280;65200;49.500;8.654;2023-05-21T12:22:01;99991.22;;;28.91;36.88
76378;BME280;65200;49.500;8.654;2023-05-21T12:24:28;99999.50;;;28.91;36.72
76378;BME280;65200;49.500;8.654;2023-05-21T12:26:55;100003.53;;;28.94;36.04
76378;BME280;65200;49.500;8.654;2023-05-21T12:29:24;100007.03;;;29.16;36.43
76378;BME280;65200;49.500;8.654;2023-05-21T12:31:51;100004.13;;;29.21;34.59
76378;BME280;65200;49.500;8.654;2023-05-21T12:34:38;100002.69;;;29.32;36.37
76378;BME280;65200;49.500;8.654;2023-05-21T12:37:19;100001.41;;;29.30;37.50
76378;BME280;65200;49.500;8.654;2023-05-21T12:39:47;99974.78;;;29.42;34.36
76378;BME280;65200;49.500;8.654;2023-05-21T12:42:14;99949.25;;;29.20;34.68
76378;BME280;65200;49.500;8.654;2023-05-21T12:44:43;99990.53;;;29.50;35.57
76378;BME280;65200;49.500;8.654;2023-05-21T12:47:10;99956.75;;;29.36;34.57
76378;BME280;65200;49.500;8.654;2023-05-21T12:49:38;99996.13;;;29.68;38.78
76378;BME280;65200;49.500;8.654;2023-05-21T12:52:08;99954.00;;;29.36;36.42
76378;BME280;65200;49.500;8.654;2023-05-21T12:54:37;99967.34;;;29.69;40.18
76378;BME280;65200;49.500;8.654;2023-05-21T12:57:07;99994.31;;;29.97;37.26